Time;durP1;ratioP1;P1;durP2;ratioP2;P2;SDS_P1;SDS_P2;PMS_P1;PMS_P2;Temp;Humidity;BMP_temperature;BMP_pressure;BME280_temperature;BME280_humidity;BME280_pressure;Samples;Min_cycle;Max_cycle;Signal;HPM_P1;HPM_P2
2023/12/24 09:57:17;;;;;;;3.85;2.30;;;;;;;20.75;43.54;99072.72;2130557;27;20843;-67
2023/12/24 09:58:19;;;;;;;5.40;2.30;;;;;;;20.65;41.64;99070.69;2121476;27;20113;-66
2023/12/24 09:59:20;;;;;;;4.13;2.20;;;;;;;20.53;41.39;99075.34;2112953;27;20909;-66
2023/12/24 10:00:23;;;;;;;4.18;2.15;;;;;;;20.45;41.63;99062.78;2114358;27;20105;-67
2023/12/24 10:01:26;;;;;;;7.10;2.90;;;;;;;20.34;39.74;99062.72;2104706;28;20062;-66
2023/12/24 10:02:28;;;;;;;4.40;2.00;;;;;;;20.22;40.48;99060.28;2105001;27;20072;-68
2023/12/24 10:03:30;;;;;;;4.95;2.40;;;;;;;20.14;40.51;99054.00;2104248;28;20028;-69
2023/12/24 10:04:34;;;;;;;3.55;1.63;;;;;;;20.10;40.85;99064.09;2096898;28;20736;-68
2023/12/24 10:05:58;;;;;;;4.28;2.15;;;;;;;20.06;40.74;99052.38;2096268;28;20034;-69
2023/12/24 10:07:02;;;;;;;3.72;1.50;;;;;;;20.06;41.12;99052.38;2115921;27;20034;-69
2023/12/24 10:08:06;;;;;;;2.42;1.40;;;;;;;20.08;41.24;99047.34;2103910;28;20037;-69
2023/12/24 10:09:12;;;;;;;3.67;1.60;;;;;;;20.11;41.56;99043.06;2112490;27;21009;-69
2023/12/24 10:10:14;;;;;;;3.90;1.38;;;;;;;20.12;41.67;99039.97;2119799;27;20090;-69
2023/12/24 10:11:23;;;;;;;3.40;1.45;;;;;;;20.18;41.90;99034.16;2103761;28;21229;-69
2023/12/24 10:12:28;;;;;;;4.55;1.50;;;;;;;20.22;42.03;99049.38;2113762;27;20038;-69
2023/12/24 10:13:30;;;;;;;4.22;1.67;;;;;;;20.25;42.17;99048.63;2129551;27;20023;-68
2023/12/24 10:14:36;;;;;;;9.52;5.00;;;;;;;20.26;42.43;99049.41;2120096;27;20034;-68
2023/12/24 10:15:41;;;;;;;13.70;8.77;;;;;;;20.32;42.38;99047.88;2113135;27;20052;-67
2023/12/24 10:16:43;;;;;;;17.85;11.63;;;;;;;20.39;42.58;99053.38;2106186;28;20155;-68
2023/12/24 10:17:45;;;;;;;25.23;14.73;;;;;;;20.44;42.72;99054.97;2104233;28;20042;-66
2023/12/24 10:18:50;;;;;;;25.27;16.55;;;;;;;20.48;42.65;99059.28;2115472;27;20044;-67
2023/12/24 10:19:52;;;;;;;25.55;15.23;;;;;;;20.54;42.85;99065.19;2130411;27;20023;-68
2023/12/24 10:21:09;;;;;;;23.02;14.30;;;;;;;20.59;42.75;99067.56;2103679;28;20029;-68
2023/12/24 10:22:14;;;;;;;28.70;16.02;;;;;;;20.63;42.97;99067.59;2093696;28;20081;-67
2023/12/24 10:23:18;;;;;;;36.85;20.35;;;;;;;20.68;42.86;99068.00;2105472;27;20021;-68
2023/12/24 10:24:23;;;;;;;37.28;21.60;;;;;;;20.72;43.06;99068.03;2112969;27;20024;-67
2023/12/24 10:25:28;;;;;;;40.35;24.02;;;;;;;20.76;42.90;99071.56;2121588;27;20023;-67
2023/12/24 10:26:32;;;;;;;48.17;23.88;;;;;;;20.78;43.17;99069.22;2111223;28;20048;-67
2023/12/24 10:27:35;;;;;;;43.65;23.38;;;;;;;20.84;43.07;99064.97;2104378;27;20147;-66
2023/12/24 10:28:48;;;;;;;44.05;24.25;;;;;;;20.89;43.04;99070.03;2111561;27;20032;-68
2023/12/24 10:29:50;;;;;;;43.83;24.20;;;;;;;20.93;43.13;99064.59;2115186;27;20029;-71
2023/12/24 10:31:05;;;;;;;38.70;21.85;;;;;;;20.94;42.96;99056.03;2113960;27;20016;-75
2023/12/24 10:32:10;;;;;;;44.22;22.50;;;;;;;20.97;43.12;99054.47;2116237;27;20822;-72
2023/12/24 10:33:14;;;;;;;45.28;23.58;;;;;;;21.01;43.36;99050.56;2122319;27;20146;-72
2023/12/24 10:34:18;;;;;;;39.70;22.23;;;;;;;21.06;43.17;99058.41;2123247;27;20020;-72
2023/12/24 10:35:23;;;;;;;37.60;20.83;;;;;;;21.08;43.17;99049.81;2117000;27;20024;-72
2023/12/24 10:36:25;;;;;;;32.72;18.85;;;;;;;21.13;43.21;99051.41;2123485;27;20035;-78
2023/12/24 10:37:33;;;;;;;36.58;19.05;;;;;;;21.17;43.23;99052.19;2131329;27;21096;-76
2023/12/24 10:38:38;;;;;;;35.28;19.10;;;;;;;21.19;43.33;99055.31;2125262;27;21236;-76
2023/12/24 10:39:40;;;;;;;32.95;17.75;;;;;;;21.23;43.31;99056.88;2113606;28;20846;-71
2023/12/24 10:40:42;;;;;;;34.65;18.85;;;;;;;21.26;43.30;99063.53;2112654;27;20024;-73
2023/12/24 10:41:44;;;;;;;31.45;17.83;;;;;;;21.28;43.42;99053.78;2113356;28;20065;-71
2023/12/24 10:42:45;;;;;;;33.08;17.45;;;;;;;21.33;43.42;99057.31;2102684;27;20898;-70
2023/12/24 10:43:47;;;;;;;33.35;17.00;;;;;;;21.34;43.41;99056.13;2098111;28;20842;-70
2023/12/24 10:44:49;;;;;;;31.48;17.00;;;;;;;21.37;43.52;99050.69;2105159;27;20820;-72
2023/12/24 10:45:50;;;;;;;30.83;15.88;;;;;;;21.38;43.65;99041.34;2113705;27;20143;-68
2023/12/24 10:46:51;;;;;;;27.92;16.25;;;;;;;21.42;43.70;99044.84;2112224;27;20126;-72
2023/12/24 10:47:57;;;;;;;24.83;14.80;;;;;;;21.44;43.66;99034.31;2109783;27;20031;-70
2023/12/24 10:48:59;;;;;;;26.00;14.38;;;;;;;21.46;43.63;99039.38;2113774;27;20102;-71
2023/12/24 10:50:01;;;;;;;24.35;13.35;;;;;;;21.48;43.58;99035.09;2112498;27;21249;-70
2023/12/24 10:51:04;;;;;;;28.30;12.57;;;;;;;21.51;43.63;99039.78;2114015;27;20024;-70
2023/12/24 10:52:06;;;;;;;24.25;12.73;;;;;;;21.55;43.67;99033.53;2112270;27;20844;-70
2023/12/24 10:53:10;;;;;;;23.48;12.55;;;;;;;21.58;43.90;99039.00;2104437;27;20033;-70
2023/12/24 10:54:17;;;;;;;23.10;12.63;;;;;;;21.60;43.56;99035.91;2113712;27;20083;-69
2023/12/24 10:55:19;;;;;;;21.40;11.35;;;;;;;21.62;43.59;99033.53;2130037;27;20028;-71
2023/12/24 10:56:32;;;;;;;21.10;11.18;;;;;;;21.65;43.53;99049.16;2112259;28;20103;-71
2023/12/24 10:57:52;;;;;;;18.30;10.93;;;;;;;21.67;43.66;99038.63;2109703;27;20047;-71
2023/12/24 10:59:06;;;;;;;16.95;10.18;;;;;;;21.70;43.55;99040.59;2124016;27;20016;-70
2023/12/24 11:00:12;;;;;;;20.98;10.43;;;;;;;21.72;43.45;99040.97;2122905;27;20631;-70
2023/12/24 11:01:15;;;;;;;20.30;10.35;;;;;;;21.72;43.67;99032.75;2129406;27;20888;-69
2023/12/24 11:02:17;;;;;;;20.77;10.13;;;;;;;21.74;43.28;99041.34;2121416;27;20028;-70
2023/12/24 11:03:47;;;;;;;16.73;8.00;;;;;;;21.74;40.43;99039.41;2109707;27;20077;-73
2023/12/24 11:04:52;;;;;;;10.60;4.88;;;;;;;21.66;38.81;99039.81;2128916;27;20035;-71
2023/12/24 11:05:56;;;;;;;10.50;5.00;;;;;;;21.56;38.92;99035.09;2119093;27;20020;-72
2023/12/24 11:07:05;;;;;;;7.60;4.13;;;;;;;21.49;38.75;99031.19;2122540;27;20032;-73
2023/12/24 11:08:23;;;;;;;7.50;3.63;;;;;;;21.44;38.74;99034.31;2126397;27;20097;-69
2023/12/24 11:09:24;;;;;;;6.38;3.17;;;;;;;21.41;38.85;99035.09;2109156;28;20167;-69
2023/12/24 11:10:42;;;;;;;8.32;3.50;;;;;;;21.37;39.06;99028.03;2092920;28;20075;-67
2023/12/24 11:11:58;;;;;;;6.20;3.45;;;;;;;21.36;39.23;99032.72;2092535;28;20041;-67
2023/12/24 11:13:00;;;;;;;6.32;3.47;;;;;;;21.35;39.37;99041.31;2108487;28;20193;-68
2023/12/24 11:14:04;;;;;;;6.65;3.67;;;;;;;21.36;39.42;99042.88;2106737;28;20029;-68
2023/12/24 11:15:08;;;;;;;5.60;3.28;;;;;;;21.34;39.53;99032.28;2106726;28;20020;-70
2023/12/24 11:16:09;;;;;;;7.00;4.10;;;;;;;21.34;39.31;99035.03;2115348;28;20755;-68
2023/12/24 11:17:31;;;;;;;6.65;3.45;;;;;;;21.34;39.11;99037.75;2121930;27;20157;-68
2023/12/24 11:19:01;;;;;;;6.65;3.30;;;;;;;21.32;39.03;99031.91;2102312;27;20031;-68
2023/12/24 11:20:16;;;;;;;5.90;3.35;;;;;;;21.34;39.35;99028.78;2112967;27;20040;-69
2023/12/24 11:21:19;;;;;;;6.65;3.30;;;;;;;21.34;39.34;99028.78;2118410;27;20036;-67
2023/12/24 11:22:23;;;;;;;5.75;3.25;;;;;;;21.34;39.37;99018.63;2122762;27;20092;-66
2023/12/24 11:23:27;;;;;;;7.15;3.10;;;;;;;21.36;39.68;99016.31;2106643;27;20113;-68
2023/12/24 11:24:30;;;;;;;5.20;3.03;;;;;;;21.36;39.51;99019.06;2115182;27;20023;-68
2023/12/24 11:25:40;;;;;;;4.43;2.88;;;;;;;21.39;39.95;99037.41;2114182;27;20941;-68
2023/12/24 11:26:53;;;;;;;6.55;3.40;;;;;;;21.40;39.88;99022.56;2108522;27;20046;-68
2023/12/24 11:27:55;;;;;;;5.40;3.20;;;;;;;21.41;39.73;99018.69;2110545;27;21332;-67
2023/12/24 11:28:59;;;;;;;6.00;3.40;;;;;;;21.43;40.00;99027.25;2105437;28;20158;-68
2023/12/24 11:30:03;;;;;;;6.15;2.88;;;;;;;21.46;40.01;99014.78;2106285;28;20035;-69
2023/12/24 11:31:10;;;;;;;5.63;2.63;;;;;;;21.47;40.13;99016.34;2115830;27;20020;-69
2023/12/24 11:32:26;;;;;;;5.22;2.70;;;;;;;21.50;40.15;99012.81;2125897;27;20139;-69
2023/12/24 11:33:29;;;;;;;6.40;3.50;;;;;;;21.50;39.58;99021.81;2132484;27;20955;-68
2023/12/24 11:34:33;;;;;;;5.15;2.95;;;;;;;21.48;39.20;99018.69;2123139;27;20130;-68
2023/12/24 11:35:54;;;;;;;7.00;2.95;;;;;;;21.44;38.90;99011.66;2112653;27;20036;-68
2023/12/24 11:37:05;;;;;;;4.82;2.65;;;;;;;21.42;38.92;99009.31;2100908;28;20044;-69
2023/12/24 11:38:42;;;;;;;7.88;3.20;;;;;;;21.43;38.91;99012.81;2108141;27;20036;-69
2023/12/24 11:40:15;;;;;;;6.30;2.40;;;;;;;21.43;39.04;99010.84;2123593;27;20134;-67
2023/12/24 11:41:22;;;;;;;4.65;2.25;;;;;;;21.42;39.03;99009.31;2119946;27;20162;-68
2023/12/24 11:42:40;;;;;;;5.57;2.38;;;;;;;21.42;39.23;99008.53;2114744;27;20103;-69
2023/12/24 11:43:52;;;;;;;4.18;2.42;;;;;;;21.45;39.21;99008.53;2117289;27;20025;-68
2023/12/24 11:44:59;;;;;;;4.43;2.60;;;;;;;21.45;39.47;98997.59;2112439;28;20032;-72
2023/12/24 11:46:06;;;;;;;5.95;2.38;;;;;;;21.47;39.64;99000.72;2106251;27;20028;-70
2023/12/24 11:47:19;;;;;;;4.40;2.40;;;;;;;21.49;39.67;99001.09;2111842;27;20253;-71
2023/12/24 11:48:21;;;;;;;3.92;2.25;;;;;;;21.52;39.65;98996.81;2116805;27;20122;-69
2023/12/24 11:49:23;;;;;;;5.88;2.53;;;;;;;21.55;39.77;98998.00;2111615;28;20051;-69
2023/12/24 11:50:27;;;;;;;4.07;2.47;;;;;;;21.56;39.35;98996.81;2090681;28;20040;-68
2023/12/24 11:51:32;;;;;;;4.07;2.40;;;;;;;21.56;39.39;98985.88;2105456;28;20033;-69
2023/12/24 11:52:35;;;;;;;4.13;2.20;;;;;;;21.57;39.49;98988.22;2110752;27;20023;-65
2023/12/24 11:53:40;;;;;;;4.70;2.60;;;;;;;21.58;39.54;98994.47;2105497;28;20135;-66
2023/12/24 11:54:42;;;;;;;6.35;2.50;;;;;;;21.60;39.53;98992.13;2098551;28;20048;-66
2023/12/24 11:55:44;;;;;;;4.55;2.63;;;;;;;21.59;39.38;98979.63;2097179;28;20033;-66
2023/12/24 11:56:47;;;;;;;5.30;2.38;;;;;;;21.62;39.34;98989.78;2105292;28;20036;-70
2023/12/24 11:57:52;;;;;;;4.03;2.30;;;;;;;21.62;39.59;98984.31;2106535;28;20851;-67
2023/12/24 11:59:06;;;;;;;4.53;2.17;;;;;;;21.64;39.54;98987.44;2107488;27;20986;-68
2023/12/24 12:00:23;;;;;;;3.78;2.10;;;;;;;21.64;39.42;98974.53;2115883;27;21220;-67
2023/12/24 12:01:31;;;;;;;4.00;2.20;;;;;;;21.67;39.60;98976.50;2119155;27;20032;-67
2023/12/24 12:02:33;;;;;;;3.25;1.90;;;;;;;21.69;39.60;98973.34;2131046;27;20877;-67
2023/12/24 12:03:38;;;;;;;5.07;1.70;;;;;;;21.71;39.76;98968.28;2121488;27;20067;-67
2023/12/24 12:04:39;;;;;;;4.10;1.98;;;;;;;21.73;39.73;98965.94;2121098;27;20071;-66
2023/12/24 12:05:43;;;;;;;3.97;1.90;;;;;;;21.74;39.76;98965.53;2112078;28;20118;-66
2023/12/24 12:06:46;;;;;;;4.20;1.77;;;;;;;21.78;39.76;98968.28;2106661;27;20063;-66
2023/12/24 12:07:50;;;;;;;3.38;1.90;;;;;;;21.80;39.73;98968.66;2115081;27;20917;-67
2023/12/24 12:08:55;;;;;;;5.18;1.83;;;;;;;21.80;39.86;98960.47;2106955;27;20083;-67
2023/12/24 12:09:59;;;;;;;3.55;1.63;;;;;;;21.83;39.93;98967.88;2115916;27;20960;-71
2023/12/24 12:11:01;;;;;;;3.53;1.90;;;;;;;21.85;39.84;98964.78;2123253;27;20028;-67
2023/12/24 12:12:03;;;;;;;3.90;2.00;;;;;;;21.85;39.83;98965.53;2098042;28;20096;-67
2023/12/24 12:13:04;;;;;;;5.30;1.90;;;;;;;21.89;39.94;98976.47;2098267;27;20103;-66
2023/12/24 12:14:06;;;;;;;2.60;1.52;;;;;;;21.89;40.04;98982.72;2114475;27;20097;-67
2023/12/24 12:15:11;;;;;;;4.05;1.65;;;;;;;21.91;40.06;98963.97;2113767;28;20854;-66
2023/12/24 12:16:12;;;;;;;3.58;2.08;;;;;;;21.93;39.94;98967.09;2089648;28;20069;-73
2023/12/24 12:17:16;;;;;;;3.45;1.55;;;;;;;21.94;39.83;98965.94;2089563;28;20050;-68
2023/12/24 12:18:19;;;;;;;4.68;2.28;;;;;;;21.94;39.87;98957.72;2089435;28;20174;-69
2023/12/24 12:19:26;;;;;;;3.70;1.98;;;;;;;21.95;39.82;98970.22;2096583;28;20034;-69
2023/12/24 12:20:31;;;;;;;4.20;1.92;;;;;;;21.95;39.79;98953.78;2103794;28;20033;-68
2023/12/24 12:21:33;;;;;;;2.25;1.63;;;;;;;21.97;39.76;98951.47;2113261;28;20168;-68
2023/12/24 12:22:38;;;;;;;3.45;2.10;;;;;;;21.99;39.74;98960.03;2098376;28;20148;-68
2023/12/24 12:23:39;;;;;;;2.28;1.35;;;;;;;21.99;40.07;98957.28;2106297;28;20887;-68
2023/12/24 12:24:43;;;;;;;3.75;1.85;;;;;;;22.01;40.04;98953.41;2097316;28;20160;-68
2023/12/24 12:25:47;;;;;;;3.20;1.60;;;;;;;22.02;40.20;98955.72;2098032;28;20084;-68
2023/12/24 12:26:50;;;;;;;4.38;1.90;;;;;;;22.04;40.45;98945.19;2106884;27;20040;-69
2023/12/24 12:27:54;;;;;;;1.88;1.30;;;;;;;22.05;40.63;98952.22;2114052;27;20038;-68
2023/12/24 12:28:56;;;;;;;2.97;1.63;;;;;;;22.06;40.76;98948.28;2122696;27;20982;-68
2023/12/24 12:29:58;;;;;;;2.95;1.75;;;;;;;22.08;40.86;98939.69;2113945;27;20070;-68
2023/12/24 12:31:00;;;;;;;3.00;1.83;;;;;;;22.09;40.92;98935.78;2106171;27;20032;-68
2023/12/24 12:32:04;;;;;;;2.97;1.85;;;;;;;22.10;41.13;98931.84;2113970;27;20040;-68
2023/12/24 12:33:04;;;;;;;4.32;2.47;;;;;;;22.10;41.13;98929.91;2114693;27;20786;-68
2023/12/24 12:34:06;;;;;;;5.15;3.25;;;;;;;22.12;41.35;98930.28;2118700;27;20106;-73
2023/12/24 12:35:10;;;;;;;5.15;3.50;;;;;;;22.13;41.38;98942.81;2114508;27;20055;-72
2023/12/24 12:36:13;;;;;;;5.63;3.75;;;;;;;22.14;41.42;98927.16;2097733;28;20029;-72
2023/12/24 12:37:18;;;;;;;6.13;3.70;;;;;;;22.15;41.54;98925.97;2082046;28;20156;-70
2023/12/24 12:38:22;;;;;;;5.18;3.50;;;;;;;22.16;41.48;98931.09;2099498;27;20807;-73
2023/12/24 12:39:24;;;;;;;5.78;4.15;;;;;;;22.17;41.67;98927.19;2115608;27;20095;-73
2023/12/24 12:40:26;;;;;;;6.95;3.95;;;;;;;22.19;41.74;98934.97;2123434;27;20035;-73
2023/12/24 12:41:28;;;;;;;8.48;4.70;;;;;;;22.20;41.47;98920.13;2123940;27;20842;-73
2023/12/24 12:42:29;;;;;;;6.93;4.07;;;;;;;22.18;41.02;98917.78;2107055;28;20040;-72
2023/12/24 12:43:31;;;;;;;8.20;4.38;;;;;;;22.16;40.78;98919.34;2106696;27;20032;-72
2023/12/24 12:44:34;;;;;;;7.28;4.28;;;;;;;22.15;40.82;98923.25;2113921;27;20032;-73
2023/12/24 12:45:35;;;;;;;7.22;4.03;;;;;;;22.14;40.81;98916.22;2123806;27;20038;-75
2023/12/24 12:46:37;;;;;;;7.82;4.00;;;;;;;22.13;40.83;98920.91;2115509;27;20129;-74
2023/12/24 12:47:42;;;;;;;6.95;3.80;;;;;;;22.12;40.38;98918.56;2115940;27;20138;-74
2023/12/24 12:48:45;;;;;;;6.35;3.78;;;;;;;22.10;40.31;98910.75;2106372;28;20044;-74
2023/12/24 12:49:46;;;;;;;7.10;3.83;;;;;;;22.09;40.35;98914.66;2098367;28;20051;-74
2023/12/24 12:50:49;;;;;;;6.55;3.70;;;;;;;22.08;40.39;98901.38;2114391;27;20035;-73
2023/12/24 12:51:51;;;;;;;5.53;3.70;;;;;;;22.07;40.50;98897.88;2114045;28;20039;-73
2023/12/24 12:52:54;;;;;;;5.63;3.35;;;;;;;22.08;40.47;98895.91;2114052;27;20093;-74
2023/12/24 12:53:58;;;;;;;6.32;3.63;;;;;;;22.07;40.58;98899.81;2115009;27;20164;-72
2023/12/24 12:55:11;;;;;;;5.93;3.50;;;;;;;22.08;40.46;98884.97;2116113;27;21000;-71
2023/12/24 12:56:16;;;;;;;6.18;3.70;;;;;;;22.09;40.55;98891.97;2117498;27;20031;-75
2023/12/24 12:57:37;;;;;;;9.18;3.92;;;;;;;22.08;40.66;98887.69;2108706;28;20020;-75
2023/12/24 12:58:38;;;;;;;5.13;3.50;;;;;;;22.11;40.78;98895.13;2105559;28;20053;-73
2023/12/24 12:59:40;;;;;;;6.47;3.42;;;;;;;22.12;40.92;98888.47;2100646;28;20024;-80
2023/12/24 13:00:46;;;;;;;7.85;4.05;;;;;;;22.14;40.87;98891.59;2116687;27;20058;-78
2023/12/24 13:01:48;;;;;;;7.88;4.00;;;;;;;22.14;41.05;98902.53;2115838;28;20846;-78
2023/12/24 13:02:51;;;;;;;9.82;4.10;;;;;;;22.16;41.09;98891.97;2116792;27;20312;-82
2023/12/24 13:04:01;;;;;;;12.40;4.63;;;;;;;22.19;41.11;98896.66;2115603;28;20883;-78
2023/12/24 13:05:03;;;;;;;11.88;4.32;;;;;;;22.20;41.15;98898.25;2109835;27;20032;-77
2023/12/24 13:06:11;;;;;;;10.30;3.75;;;;;;;22.20;41.10;98892.75;2106977;28;20021;-74
2023/12/24 13:07:16;;;;;;;6.45;3.53;;;;;;;22.24;41.20;98881.81;2099500;28;21424;-76
2023/12/24 13:08:20;;;;;;;7.95;3.50;;;;;;;22.25;41.22;98878.66;2099391;28;20033;-81
2023/12/24 13:09:30;;;;;;;8.82;3.85;;;;;;;22.27;41.16;98878.25;2090588;28;20063;-81
2023/12/24 13:10:38;;;;;;;6.88;3.55;;;;;;;22.28;41.15;98871.59;2108408;27;20122;-74
2023/12/24 13:11:40;;;;;;;8.05;3.45;;;;;;;22.28;41.14;98872.38;2116737;28;20841;-82
2023/12/24 13:12:41;;;;;;;8.70;3.50;;;;;;;22.31;41.17;98865.31;2100612;28;20138;-82
2023/12/24 13:13:46;;;;;;;7.32;2.90;;;;;;;22.33;41.23;98868.47;2116571;27;20043;-78
2023/12/24 13:14:54;;;;;;;6.55;3.95;;;;;;;22.32;41.23;98856.72;2124117;27;20078;-75
2023/12/24 13:16:09;;;;;;;9.82;3.10;;;;;;;22.34;41.26;98859.84;2106557;28;20020;-76
2023/12/24 13:17:10;;;;;;;7.93;3.78;;;;;;;22.36;41.16;98856.72;2107649;27;20036;-73
2023/12/24 13:18:28;;;;;;;6.10;3.15;;;;;;;22.38;41.15;98852.41;2121914;27;20031;-76
2023/12/24 13:19:34;;;;;;;5.70;3.00;;;;;;;22.39;41.18;98856.69;2112170;28;20852;-85
2023/12/24 13:20:38;;;;;;;6.30;2.85;;;;;;;22.40;41.24;98847.28;2116359;27;20889;-78
2023/12/24 13:21:40;;;;;;;5.72;2.67;;;;;;;22.41;41.21;98842.59;2123393;27;20040;-78
2023/12/24 13:22:42;;;;;;;5.55;2.70;;;;;;;22.41;41.22;98842.59;2106445;28;20794;-76
2023/12/24 13:23:47;;;;;;;6.45;2.45;;;;;;;22.42;41.19;98844.94;2098114;28;20226;-77
2023/12/24 13:24:50;;;;;;;5.00;2.80;;;;;;;22.43;41.10;98837.50;2107049;27;20066;-78
2023/12/24 13:25:55;;;;;;;5.95;2.88;;;;;;;22.44;41.20;98841.78;2123503;27;20110;-74
2023/12/24 13:26:58;;;;;;;4.22;2.15;;;;;;;22.44;41.07;98842.56;2126073;27;20738;-76
2023/12/24 13:28:03;;;;;;;7.00;2.75;;;;;;;22.44;41.12;98842.56;2115719;28;20016;-77
2023/12/24 13:29:05;;;;;;;7.80;2.65;;;;;;;22.47;41.13;98837.47;2115149;27;20133;-80
2023/12/24 13:30:11;;;;;;;5.20;2.67;;;;;;;22.47;41.16;98834.72;2125209;27;20011;-81
2023/12/24 13:31:13;;;;;;;6.47;2.95;;;;;;;22.48;41.21;98830.81;2123632;27;20024;-76
2023/12/24 13:32:14;;;;;;;6.82;2.80;;;;;;;22.49;41.19;98832.38;2115091;27;20100;-75
2023/12/24 13:33:20;;;;;;;6.47;3.17;;;;;;;22.49;40.53;98837.84;2106158;28;20036;-76
2023/12/24 13:34:21;;;;;;;7.13;3.15;;;;;;;22.40;38.51;98833.59;2107256;27;20032;-81
2023/12/24 13:35:25;;;;;;;8.88;3.58;;;;;;;22.35;37.47;98838.69;2097322;28;20164;-70
2023/12/24 13:36:30;;;;;;;6.75;2.97;;;;;;;22.20;35.86;98832.53;2107927;27;20028;-80
2023/12/24 13:37:32;;;;;;;7.22;2.50;;;;;;;22.06;35.54;98833.34;2115207;28;20044;-76
2023/12/24 13:38:35;;;;;;;5.70;2.83;;;;;;;21.95;35.58;98849.81;2115900;27;20032;-76
2023/12/24 13:39:39;;;;;;;6.65;2.50;;;;;;;21.87;36.01;98840.06;2123607;27;20077;-75
2023/12/24 13:40:42;;;;;;;6.97;2.80;;;;;;;21.81;35.88;98827.97;2103480;28;20049;-79
2023/12/24 13:41:46;;;;;;;7.85;3.22;;;;;;;21.73;36.13;98829.94;2098809;28;20029;-75
2023/12/24 13:42:47;;;;;;;8.65;3.00;;;;;;;21.66;36.30;98824.50;2107618;28;20861;-76
2023/12/24 13:43:50;;;;;;;8.13;3.20;;;;;;;21.67;36.53;98815.13;2098721;28;20084;-76
2023/12/24 13:44:53;;;;;;;7.50;2.95;;;;;;;21.67;36.92;98823.31;2098777;28;20033;-72
2023/12/24 13:45:54;;;;;;;6.25;2.67;;;;;;;21.67;37.22;98822.56;2098261;28;20828;-76
2023/12/24 13:46:56;;;;;;;6.18;2.70;;;;;;;21.67;37.42;98812.38;2107583;27;20025;-75
2023/12/24 13:47:57;;;;;;;5.40;2.90;;;;;;;21.68;37.75;98819.41;2107176;28;20043;-76
2023/12/24 13:49:02;;;;;;;7.90;2.65;;;;;;;21.70;37.75;98806.13;2115864;27;20080;-75
2023/12/24 13:50:05;;;;;;;6.50;2.97;;;;;;;21.74;37.89;98806.09;2115381;28;20038;-76
2023/12/24 13:51:09;;;;;;;9.48;2.60;;;;;;;21.74;38.01;98800.63;2108270;28;20238;-76
2023/12/24 13:52:11;;;;;;;6.82;2.45;;;;;;;21.78;38.17;98806.88;2091358;28;20030;-76
2023/12/24 13:53:16;;;;;;;6.30;2.63;;;;;;;21.80;38.16;98811.97;2108807;27;20025;-77
2023/12/24 13:54:18;;;;;;;6.13;2.13;;;;;;;21.81;38.28;98797.88;2123997;27;20035;-77
2023/12/24 13:55:21;;;;;;;6.45;2.55;;;;;;;21.83;38.33;98802.97;2114940;28;20869;-76
2023/12/24 13:56:22;;;;;;;5.47;2.40;;;;;;;21.86;38.57;98802.16;2098159;28;20060;-76
2023/12/24 13:57:25;;;;;;;5.53;2.45;;;;;;;21.88;38.64;98800.59;2116410;27;20939;-82
2023/12/24 13:58:27;;;;;;;5.22;2.22;;;;;;;21.88;38.63;98803.34;2106904;28;20051;-75
2023/12/24 13:59:29;;;;;;;4.20;2.25;;;;;;;21.90;38.75;98790.00;2091070;28;20079;-76
2023/12/24 14:00:31;;;;;;;5.65;2.40;;;;;;;21.94;38.71;98785.31;2090890;28;20044;-77
2023/12/24 14:01:34;;;;;;;3.85;2.00;;;;;;;21.96;38.79;98774.75;2107635;27;20044;-77
2023/12/24 14:02:38;;;;;;;4.65;2.40;;;;;;;21.98;38.85;98766.94;2115208;27;20028;-76
2023/12/24 14:03:40;;;;;;;6.53;2.40;;;;;;;21.99;38.88;98762.22;2116027;27;20024;-76
2023/12/24 14:04:42;;;;;;;4.93;2.08;;;;;;;22.02;38.85;98766.13;2105908;28;20851;-76
2023/12/24 14:05:44;;;;;;;3.67;2.15;;;;;;;22.03;38.84;98768.44;2106891;27;21290;-76
2023/12/24 14:06:46;;;;;;;6.30;2.40;;;;;;;22.04;38.79;98759.09;2106652;28;21257;-76
2023/12/24 14:07:48;;;;;;;6.60;2.30;;;;;;;22.06;38.90;98758.66;2114214;27;20057;-76
2023/12/24 14:08:51;;;;;;;4.47;2.15;;;;;;;22.07;38.83;98763.75;2123113;27;20952;-76
2023/12/24 14:09:52;;;;;;;4.38;1.90;;;;;;;22.08;38.89;98762.56;2115066;27;20039;-76
2023/12/24 14:10:54;;;;;;;4.88;1.98;;;;;;;22.09;38.87;98755.13;2123617;27;20945;-76
2023/12/24 14:11:55;;;;;;;3.70;1.67;;;;;;;22.07;38.76;98754.75;2114816;28;20845;-75
2023/12/24 14:12:59;;;;;;;3.20;1.90;;;;;;;22.11;38.74;98753.56;2106996;27;20071;-76
2023/12/24 14:14:01;;;;;;;4.75;2.22;;;;;;;22.12;38.84;98754.34;2106413;28;20052;-76
2023/12/24 14:15:06;;;;;;;3.97;1.70;;;;;;;22.12;38.70;98744.16;2096849;28;20155;-76
2023/12/24 14:16:08;;;;;;;4.93;1.92;;;;;;;22.13;38.84;98739.47;2114611;27;20158;-76
2023/12/24 14:17:10;;;;;;;4.20;1.65;;;;;;;22.14;38.86;98743.78;2113637;28;20028;-76
2023/12/24 14:18:11;;;;;;;4.35;1.83;;;;;;;22.15;38.82;98734.38;2097554;28;20135;-76
2023/12/24 14:19:13;;;;;;;3.85;1.75;;;;;;;22.15;38.82;98739.84;2114187;27;20853;-76
2023/12/24 14:20:16;;;;;;;3.40;1.90;;;;;;;22.15;38.80;98743.38;2123279;27;20112;-76
2023/12/24 14:21:19;;;;;;;3.85;2.13;;;;;;;22.16;38.73;98734.03;2106351;28;20552;-76
2023/12/24 14:22:20;;;;;;;2.63;1.50;;;;;;;22.17;38.66;98726.59;2107229;27;20078;-76
2023/12/24 14:23:22;;;;;;;3.05;1.60;;;;;;;22.18;38.74;98726.16;2106538;28;20021;-76
2023/12/24 14:24:24;;;;;;;2.60;1.50;;;;;;;22.17;38.73;98734.81;2106790;28;20152;-76
2023/12/24 14:25:26;;;;;;;3.15;1.55;;;;;;;22.18;38.64;98726.16;2106698;27;20165;-76
2023/12/24 14:26:30;;;;;;;2.25;1.70;;;;;;;22.19;38.63;98721.47;2115667;27;20064;-76
2023/12/24 14:27:32;;;;;;;4.00;1.77;;;;;;;22.19;38.58;98722.28;2106138;28;20044;-76
2023/12/24 14:28:34;;;;;;;2.17;1.40;;;;;;;22.19;38.53;98733.22;2107432;27;20041;-75
2023/12/24 14:29:38;;;;;;;3.40;1.85;;;;;;;22.18;38.59;98709.75;2124019;27;20875;-76
2023/12/24 14:30:42;;;;;;;2.75;1.50;;;;;;;22.20;38.55;98710.13;2115632;28;20032;-76
2023/12/24 14:31:44;;;;;;;3.00;1.30;;;;;;;22.21;38.62;98716.38;2107717;27;20038;-76
2023/12/24 14:32:46;;;;;;;2.78;1.42;;;;;;;22.20;38.38;98699.19;2115701;28;20051;-76
2023/12/24 14:33:52;;;;;;;2.70;1.38;;;;;;;22.20;38.48;98701.16;2107309;28;20029;-75
2023/12/24 14:34:54;;;;;;;2.83;1.50;;;;;;;22.21;38.44;98713.66;2108624;27;20021;-76
2023/12/24 14:35:56;;;;;;;3.85;2.25;;;;;;;22.21;38.40;98698.00;2106696;28;20025;-76
2023/12/24 14:36:57;;;;;;;2.70;1.55;;;;;;;22.19;38.55;98700.38;2107379;28;20029;-76
2023/12/24 14:37:59;;;;;;;2.70;1.30;;;;;;;22.24;38.47;98696.41;2107124;27;20151;-77
2023/12/24 14:39:03;;;;;;;2.63;1.30;;;;;;;22.23;38.50;98689.41;2124342;27;20020;-77
2023/12/24 14:40:08;;;;;;;1.98;1.15;;;;;;;22.22;38.47;98698.78;2123950;27;20025;-75
2023/12/24 14:41:09;;;;;;;2.70;1.30;;;;;;;22.24;38.31;98690.94;2115922;27;20020;-75
2023/12/24 14:42:11;;;;;;;2.55;1.30;;;;;;;22.24;38.36;98688.22;2106803;28;21320;-76
2023/12/24 14:43:13;;;;;;;2.55;1.20;;;;;;;22.24;38.25;98696.41;2107269;27;20036;-76
2023/12/24 14:44:16;;;;;;;2.50;1.20;;;;;;;22.25;38.24;98695.22;2125026;27;20020;-76
2023/12/24 14:45:20;;;;;;;1.88;1.30;;;;;;;22.25;38.28;98681.53;2125165;27;21262;-75
2023/12/24 14:46:22;;;;;;;2.70;1.40;;;;;;;22.26;38.37;98685.06;2125413;27;20770;-76
2023/12/24 14:47:29;;;;;;;3.25;1.35;;;;;;;22.25;38.23;98676.06;2117115;28;20028;-76
2023/12/24 14:48:36;;;;;;;2.88;1.45;;;;;;;22.24;38.30;98680.00;2117628;27;20139;-76
2023/12/24 14:49:37;;;;;;;1.88;1.27;;;;;;;22.26;38.21;98683.13;2116828;28;20162;-76
2023/12/24 14:50:39;;;;;;;1.85;1.20;;;;;;;22.26;38.26;98665.88;2100219;28;20107;-77
2023/12/24 14:51:46;;;;;;;2.40;1.10;;;;;;;22.24;38.11;98677.25;2108730;27;20032;-76
2023/12/24 14:52:48;;;;;;;1.88;1.17;;;;;;;22.26;38.09;98658.47;2108867;28;20025;-76
2023/12/24 14:53:50;;;;;;;2.10;1.23;;;;;;;22.26;38.13;98663.97;2107825;27;20037;-77
2023/12/24 14:54:53;;;;;;;3.35;1.30;;;;;;;22.27;37.99;98662.00;2115607;28;20024;-76
2023/12/24 14:55:58;;;;;;;1.50;1.10;;;;;;;22.26;38.20;98661.22;2099904;28;20021;-76
2023/12/24 14:57:02;;;;;;;2.30;1.00;;;;;;;22.26;38.09;98655.75;2109035;27;20076;-77
2023/12/24 14:58:04;;;;;;;2.42;1.45;;;;;;;22.26;38.13;98653.00;2116904;27;20037;-76
2023/12/24 14:59:09;;;;;;;2.42;1.10;;;;;;;22.27;38.05;98649.06;2116808;27;20044;-76
2023/12/24 15:00:16;;;;;;;1.50;1.00;;;;;;;22.28;37.97;98652.59;2116906;27;20147;-76
2023/12/24 15:01:18;;;;;;;1.45;1.15;;;;;;;22.28;37.97;98660.81;2117397;27;20027;-76